Terminal Aerodrome Forecast
Issued by NWS

Home | Current Version | Previous Version | Text Only | Print | Product List | Glossary On
Versions: 1 2 3 4 5 6 7 8 9 10 11 12 13
000
FTUS46 KPDT 022300
TAFRDM
TAF
KRDM 022322Z 0300/0324 32015G24KT P6SM SKC
     FM030300 32011KT P6SM SKC
     FM030700 VRB05KT P6SM SKC
     FM032100 34010G15KT P6SM SKC=

USA.gov is the U.S. government's official web portal to all federal, state and local government web resources and services.